createdAt,value
2023-03-06T00:00:00.694Z,98615.08
2023-03-06T00:02:05.413Z,98617.36
2023-03-06T00:04:10.182Z,98619.88
2023-03-06T00:06:14.850Z,98622.11
2023-03-06T00:08:19.565Z,98625.20
2023-03-06T00:10:27.083Z,98624.53
2023-03-06T00:12:31.792Z,98623.59
2023-03-06T00:14:36.437Z,98628.58
2023-03-06T00:16:41.036Z,98623.98
2023-03-06T00:18:45.683Z,98623.24
2023-03-06T00:20:50.305Z,98618.20
2023-03-06T00:22:57.544Z,98616.15
2023-03-06T00:25:08.519Z,98618.08
2023-03-06T00:27:13.151Z,98615.65
2023-03-06T00:29:17.859Z,98612.10
2023-03-06T00:31:22.851Z,98610.20
2023-03-06T00:33:27.683Z,98612.07
2023-03-06T00:35:32.481Z,98611.84
2023-03-06T00:37:37.318Z,98603.76
2023-03-06T00:39:42.016Z,98602.55
2023-03-06T00:41:47.134Z,98600.27
2023-03-06T00:43:51.824Z,98601.37
2023-03-06T00:45:56.459Z,98602.10
2023-03-06T00:48:01.207Z,98597.03
2023-03-06T00:50:06.807Z,98597.97
2023-03-06T00:52:12.059Z,98597.45
2023-03-06T00:54:16.694Z,98600.17
2023-03-06T00:56:21.364Z,98595.16
2023-03-06T00:58:26.099Z,98593.52
2023-03-06T01:00:33.540Z,98596.05
2023-03-06T01:02:38.254Z,98591.64
2023-03-06T01:04:42.907Z,98590.27
2023-03-06T01:06:49.082Z,98596.05
2023-03-06T01:08:53.798Z,98589.41
2023-03-06T01:10:58.547Z,98587.51
2023-03-06T01:13:03.191Z,98582.88
2023-03-06T01:15:10.833Z,98586.48
2023-03-06T01:17:15.493Z,98587.52
2023-03-06T01:19:21.022Z,98583.19
2023-03-06T01:21:25.725Z,98582.11
2023-03-06T01:23:30.388Z,98583.11
2023-03-06T01:25:35.077Z,98577.11
2023-03-06T01:27:39.813Z,98573.75
2023-03-06T01:29:44.462Z,98566.06
2023-03-06T01:31:49.118Z,98563.60
2023-03-06T01:33:54.121Z,98560.14
2023-03-06T01:35:58.799Z,98562.92
2023-03-06T01:38:03.431Z,98560.13
2023-03-06T01:40:10.906Z,98558.49
2023-03-06T01:42:16.181Z,98553.77
2023-03-06T01:44:21.390Z,98553.80
2023-03-06T01:46:33.784Z,98552.61
2023-03-06T01:48:38.599Z,98550.08
2023-03-06T01:50:43.744Z,98549.38
2023-03-06T01:52:51.094Z,98552.63
2023-03-06T01:54:58.216Z,98548.79
2023-03-06T01:57:07.025Z,98547.62
2023-03-06T01:59:12.812Z,98545.66
2023-03-06T02:01:17.856Z,98545.88
2023-03-06T02:03:25.178Z,98545.89
2023-03-06T02:05:29.870Z,98539.80
2023-03-06T02:07:36.217Z,98540.69
2023-03-06T02:09:41.563Z,98539.02
2023-03-06T02:11:46.349Z,98538.58
2023-03-06T02:13:53.683Z,98537.43
2023-03-06T02:15:58.617Z,98534.60
2023-03-06T02:18:03.636Z,98529.67
2023-03-06T02:20:16.205Z,98530.13
2023-03-06T02:22:22.161Z,98531.75
2023-03-06T02:24:36.709Z,98525.02
2023-03-06T02:26:43.952Z,98517.64
2023-03-06T02:28:48.685Z,98518.14
2023-03-06T02:30:55.815Z,98518.11
2023-03-06T02:33:01.126Z,98518.29
2023-03-06T02:35:06.839Z,98514.92
2023-03-06T02:37:11.947Z,98514.91
2023-03-06T02:39:19.418Z,98508.44
2023-03-06T02:41:24.107Z,98505.80
2023-03-06T02:43:33.240Z,98507.27
2023-03-06T02:45:40.616Z,98506.30
2023-03-06T02:47:45.345Z,98503.48
2023-03-06T02:49:51.016Z,98501.64
2023-03-06T02:51:55.790Z,98497.49
2023-03-06T02:54:00.476Z,98495.83
2023-03-06T02:56:05.419Z,98496.95
2023-03-06T02:58:10.616Z,98492.58
2023-03-06T03:00:17.577Z,98494.24
2023-03-06T03:02:22.335Z,98492.44
2023-03-06T03:04:27.042Z,98491.19
2023-03-06T03:06:31.732Z,98488.75
2023-03-06T03:08:37.169Z,98485.37
2023-03-06T03:10:42.203Z,98484.67
2023-03-06T03:12:46.881Z,98481.04
2023-03-06T03:14:51.831Z,98487.36
2023-03-06T03:16:56.584Z,98483.34
2023-03-06T03:19:02.620Z,98486.55
2023-03-06T03:21:11.095Z,98482.91
2023-03-06T03:23:15.719Z,98474.86
2023-03-06T03:25:21.607Z,98477.59
2023-03-06T03:27:26.320Z,98473.34
2023-03-06T03:29:31.523Z,98468.55
2023-03-06T03:31:36.286Z,98468.64
2023-03-06T03:33:41.756Z,98467.75
2023-03-06T03:35:46.618Z,98464.00
2023-03-06T03:37:51.332Z,98460.90
2023-03-06T03:39:56.045Z,98460.70
2023-03-06T03:42:03.595Z,98456.95
2023-03-06T03:44:08.405Z,98455.17
2023-03-06T03:46:13.402Z,98453.61
2023-03-06T03:48:18.545Z,98451.99
2023-03-06T03:50:23.631Z,98454.96
2023-03-06T03:52:28.363Z,98447.80
2023-03-06T03:54:33.082Z,98444.48
2023-03-06T03:56:37.749Z,98445.79
2023-03-06T03:58:46.353Z,98436.34
2023-03-06T04:00:51.703Z,98440.21
2023-03-06T04:02:56.420Z,98434.13
2023-03-06T04:05:09.473Z,98434.36
2023-03-06T04:07:14.206Z,98433.35
2023-03-06T04:09:19.082Z,98430.27
2023-03-06T04:11:23.794Z,98430.09
2023-03-06T04:13:28.583Z,98423.41
2023-03-06T04:15:33.415Z,98430.48
2023-03-06T04:17:38.652Z,98430.80
2023-03-06T04:19:45.090Z,98427.70
2023-03-06T04:21:49.767Z,98429.02
2023-03-06T04:23:54.506Z,98433.27
2023-03-06T04:25:59.558Z,98433.31
2023-03-06T04:28:05.043Z,98432.18
2023-03-06T04:30:11.986Z,98427.63
2023-03-06T04:32:16.804Z,98426.08
2023-03-06T04:34:21.461Z,98425.88
2023-03-06T04:36:30.414Z,98421.64
2023-03-06T04:38:37.343Z,98421.45
2023-03-06T04:40:44.476Z,98421.96
2023-03-06T04:42:49.992Z,98417.96
2023-03-06T04:44:54.612Z,98416.34
2023-03-06T04:46:59.262Z,98412.04
2023-03-06T04:49:03.984Z,98410.38
2023-03-06T04:51:10.304Z,98403.94
2023-03-06T04:53:14.929Z,98400.83
2023-03-06T04:55:19.979Z,98404.33
2023-03-06T04:57:24.632Z,98403.20
2023-03-06T04:59:29.410Z,98399.69
2023-03-06T05:01:34.038Z,98399.41
2023-03-06T05:03:39.033Z,98397.94
2023-03-06T05:05:43.947Z,98394.02
2023-03-06T05:07:48.660Z,98390.66
2023-03-06T05:09:53.824Z,98388.65
2023-03-06T05:11:58.591Z,98388.73
2023-03-06T05:14:03.235Z,98384.70
2023-03-06T05:16:09.180Z,98385.69
2023-03-06T05:18:13.963Z,98382.29
2023-03-06T05:20:19.134Z,98380.86
2023-03-06T05:22:23.931Z,98379.64
2023-03-06T05:24:28.606Z,98378.49
2023-03-06T05:26:33.366Z,98374.93
2023-03-06T05:28:38.323Z,98380.09
2023-03-06T05:30:42.988Z,98384.24
2023-03-06T05:32:47.776Z,98376.14
2023-03-06T05:34:52.953Z,98380.52
2023-03-06T05:36:57.528Z,98380.25
2023-03-06T05:39:02.203Z,98383.85
2023-03-06T05:41:10.595Z,98385.77
2023-03-06T05:43:15.301Z,98381.19
2023-03-06T05:45:20.536Z,98378.64
2023-03-06T05:47:25.283Z,98381.41
2023-03-06T05:49:33.370Z,98381.05
2023-03-06T05:51:38.126Z,98380.16
2023-03-06T05:53:42.974Z,98381.03
2023-03-06T05:55:54.850Z,98385.02
2023-03-06T05:57:59.535Z,98378.38
2023-03-06T06:00:04.834Z,98379.63
2023-03-06T06:02:17.493Z,98380.81
2023-03-06T06:04:22.349Z,98382.05
2023-03-06T06:06:27.199Z,98385.27
2023-03-06T06:08:31.892Z,98384.96
2023-03-06T06:10:36.547Z,98382.34
2023-03-06T06:12:41.367Z,98385.09
2023-03-06T06:14:46.016Z,98383.88
2023-03-06T06:16:51.512Z,98381.64
2023-03-06T06:18:56.926Z,98387.13
2023-03-06T06:21:06.191Z,98388.27
2023-03-06T06:23:11.790Z,98381.88
2023-03-06T06:25:17.058Z,98386.08
2023-03-06T06:27:21.776Z,98387.20
2023-03-06T06:29:27.499Z,98384.52
2023-03-06T06:31:32.300Z,98388.27
2023-03-06T06:33:37.059Z,98387.84
2023-03-06T06:35:41.750Z,98387.26
2023-03-06T06:37:46.537Z,98384.48
2023-03-06T06:39:51.617Z,98382.35
2023-03-06T06:42:09.983Z,98384.42
2023-03-06T06:44:21.483Z,98381.42
2023-03-06T06:47:09.600Z,98382.67
2023-03-06T06:48:52.384Z,98384.36
2023-03-06T06:51:00.522Z,98384.85
2023-03-06T06:53:05.294Z,98385.09
2023-03-06T06:55:11.964Z,98382.27
2023-03-06T06:57:16.733Z,98378.44
2023-03-06T06:59:21.456Z,98373.64
2023-03-06T07:01:26.151Z,98372.84
2023-03-06T07:03:30.871Z,98368.95
2023-03-06T07:05:35.610Z,98368.01
2023-03-06T07:07:40.245Z,98366.73
2023-03-06T07:09:44.962Z,98369.89
2023-03-06T07:11:49.845Z,98368.20
2023-03-06T07:13:54.510Z,98368.22
2023-03-06T07:15:59.273Z,98368.91
2023-03-06T07:18:04.033Z,98373.32
2023-03-06T07:20:10.251Z,98372.41
2023-03-06T07:22:14.950Z,98371.85
2023-03-06T07:24:19.663Z,98369.63
2023-03-06T07:26:24.544Z,98368.27
2023-03-06T07:28:29.172Z,98364.77
2023-03-06T07:30:33.941Z,98367.45
2023-03-06T07:32:38.594Z,98367.19
2023-03-06T07:34:43.294Z,98361.90
2023-03-06T07:36:47.980Z,98364.15
2023-03-06T07:38:52.624Z,98364.02
2023-03-06T07:40:57.267Z,98362.10
2023-03-06T07:43:18.422Z,98364.60
2023-03-06T07:45:27.568Z,98362.02
2023-03-06T07:47:32.222Z,98363.83
2023-03-06T07:49:36.896Z,98361.98
2023-03-06T07:51:41.508Z,98360.25
2023-03-06T07:53:46.460Z,98361.36
2023-03-06T07:55:51.229Z,98364.01
2023-03-06T07:57:55.983Z,98360.59
2023-03-06T08:00:00.649Z,98359.61
2023-03-06T08:02:05.386Z,98355.25
2023-03-06T08:04:10.057Z,98355.37
2023-03-06T08:06:16.983Z,98356.34
2023-03-06T08:08:21.581Z,98353.20
2023-03-06T08:10:26.284Z,98356.38
2023-03-06T08:12:31.080Z,98354.11
2023-03-06T08:14:37.262Z,98354.98
2023-03-06T08:16:41.934Z,98355.59
2023-03-06T08:18:46.786Z,98353.77
2023-03-06T08:20:51.425Z,98352.25
2023-03-06T08:22:56.033Z,98345.73
2023-03-06T08:25:00.858Z,98347.58
2023-03-06T08:27:05.634Z,98349.33
2023-03-06T08:29:12.006Z,98348.16
2023-03-06T08:31:26.967Z,98347.02
2023-03-06T08:33:31.706Z,98344.86
2023-03-06T08:35:36.383Z,98344.38
2023-03-06T08:37:41.109Z,98344.91
2023-03-06T08:39:45.827Z,98341.24
2023-03-06T08:41:50.578Z,98341.95
2023-03-06T08:43:55.291Z,98336.76
2023-03-06T08:46:00.270Z,98339.73
2023-03-06T08:48:05.119Z,98337.41
2023-03-06T08:50:11.894Z,98338.94
2023-03-06T08:52:16.628Z,98338.96
2023-03-06T08:54:21.294Z,98334.27
2023-03-06T08:56:28.113Z,98332.85
2023-03-06T08:58:32.852Z,98334.95
2023-03-06T09:00:38.525Z,98333.41
2023-03-06T09:02:43.252Z,98336.46
2023-03-06T09:04:47.929Z,98335.40
2023-03-06T09:06:54.524Z,98329.70
2023-03-06T09:09:00.427Z,98332.05
2023-03-06T09:11:05.231Z,98334.52
2023-03-06T09:13:09.818Z,98333.36
2023-03-06T09:15:15.800Z,98332.92
2023-03-06T09:17:20.459Z,98330.23
2023-03-06T09:19:25.170Z,98330.30
2023-03-06T09:21:29.997Z,98329.60
2023-03-06T09:23:35.223Z,98324.47
2023-03-06T09:25:39.922Z,98321.29
2023-03-06T09:27:44.621Z,98317.45
2023-03-06T09:29:49.603Z,98316.70
2023-03-06T09:31:54.288Z,98316.52
2023-03-06T09:33:59.141Z,98321.26
2023-03-06T09:36:05.027Z,98315.39
2023-03-06T09:38:09.720Z,98314.39
2023-03-06T09:40:24.281Z,98313.39
2023-03-06T09:42:31.429Z,98314.14
2023-03-06T09:44:38.951Z,98314.08
2023-03-06T09:47:08.912Z,98317.37
2023-03-06T09:49:38.236Z,98314.98
2023-03-06T09:51:58.815Z,98309.91
2023-03-06T09:54:12.113Z,98316.20
2023-03-06T09:56:21.434Z,98314.52
2023-03-06T09:58:28.808Z,98315.21
2023-03-06T10:00:37.020Z,98314.83
2023-03-06T10:02:44.549Z,98317.63
2023-03-06T10:04:52.271Z,98316.42
2023-03-06T10:07:04.884Z,98321.36
2023-03-06T10:09:14.737Z,98318.44
2023-03-06T10:11:26.222Z,98318.54
2023-03-06T10:13:37.198Z,98316.55
2023-03-06T10:15:44.952Z,98311.03
2023-03-06T10:17:49.995Z,98313.77
2023-03-06T10:19:54.771Z,98313.39
2023-03-06T10:22:04.290Z,98312.84
2023-03-06T10:24:20.163Z,98313.23
2023-03-06T10:26:29.689Z,98311.34
2023-03-06T10:28:41.377Z,98309.98
2023-03-06T10:30:55.934Z,98307.67
2023-03-06T10:33:06.943Z,98303.91
2023-03-06T10:35:18.458Z,98297.34
2023-03-06T10:37:24.573Z,98298.53
2023-03-06T10:39:31.159Z,98295.16
2023-03-06T10:41:36.295Z,98291.19
2023-03-06T10:43:43.754Z,98293.09
2023-03-06T10:45:53.317Z,98290.21
2023-03-06T10:48:11.118Z,98282.41
2023-03-06T10:50:27.913Z,98277.51
2023-03-06T10:52:35.426Z,98276.53
2023-03-06T10:54:42.800Z,98270.26
2023-03-06T10:56:48.486Z,98270.47
2023-03-06T10:59:07.081Z,98271.09
2023-03-06T11:01:21.747Z,98266.75
2023-03-06T11:03:26.427Z,98258.74
2023-03-06T11:05:31.129Z,98253.43
2023-03-06T11:07:36.832Z,98249.45
2023-03-06T11:09:41.985Z,98250.09
2023-03-06T11:11:46.627Z,98247.89
2023-03-06T11:13:58.875Z,98246.38
2023-03-06T11:16:07.049Z,98246.75
2023-03-06T11:18:27.828Z,98240.77
2023-03-06T11:20:50.982Z,98237.48
2023-03-06T11:23:02.053Z,98235.27
2023-03-06T11:25:11.509Z,98228.46
2023-03-06T11:27:25.509Z,98229.73
2023-03-06T11:29:38.947Z,98220.45
2023-03-06T11:31:51.088Z,98215.31
2023-03-06T11:34:05.008Z,98211.79
2023-03-06T11:36:16.043Z,98206.02
2023-03-06T11:38:25.994Z,98203.35
2023-03-06T11:40:36.821Z,98203.02
2023-03-06T11:42:47.813Z,98195.39
2023-03-06T11:45:02.918Z,98193.00
2023-03-06T11:47:16.205Z,98189.27
2023-03-06T11:49:26.182Z,98187.48
2023-03-06T11:51:35.048Z,98185.75
2023-03-06T11:53:41.855Z,98179.96
2023-03-06T11:55:54.803Z,98182.50
2023-03-06T11:58:17.322Z,98177.13
2023-03-06T12:00:33.273Z,98172.02
2023-03-06T12:03:01.782Z,98165.83
2023-03-06T12:05:25.976Z,98164.09
2023-03-06T12:07:35.167Z,98162.33
2023-03-06T12:09:48.129Z,98159.47
2023-03-06T12:12:02.486Z,98157.13
2023-03-06T12:14:20.725Z,98159.05
2023-03-06T12:16:50.278Z,98153.79
2023-03-06T12:19:07.630Z,98151.11
2023-03-06T12:21:21.630Z,98153.02
2023-03-06T12:23:43.629Z,98147.09
2023-03-06T12:25:53.966Z,98145.45
2023-03-06T12:28:08.469Z,98148.25
2023-03-06T12:30:31.159Z,98146.41
2023-03-06T12:32:47.949Z,98142.42
2023-03-06T12:35:13.535Z,98138.63
2023-03-06T12:37:30.391Z,98138.05
2023-03-06T12:39:53.350Z,98138.46
2023-03-06T12:42:22.685Z,98135.03
2023-03-06T12:44:59.781Z,98127.31
2023-03-06T12:47:08.585Z,98119.40
2023-03-06T12:49:31.424Z,98117.48
2023-03-06T12:51:38.127Z,98117.21
2023-03-06T12:53:44.219Z,98114.06
2023-03-06T12:55:50.819Z,98110.86
2023-03-06T12:57:55.671Z,98114.58
2023-03-06T13:00:00.443Z,98110.80
2023-03-06T13:02:31.876Z,98112.70
2023-03-06T13:04:57.932Z,98110.77
2023-03-06T13:07:32.078Z,98103.41
2023-03-06T13:09:54.053Z,98100.64
2023-03-06T13:12:36.157Z,98098.28
2023-03-06T13:14:58.125Z,98100.65
2023-03-06T13:17:27.128Z,98095.14
2023-03-06T13:19:32.006Z,98101.23
2023-03-06T13:22:14.944Z,98112.68
2023-03-06T13:24:22.186Z,98109.15
2023-03-06T13:26:50.557Z,98109.33
2023-03-06T13:28:56.375Z,98107.96
2023-03-06T13:31:01.202Z,98110.72
2023-03-06T13:33:39.275Z,98107.36
2023-03-06T13:35:54.447Z,98110.59
2023-03-06T13:37:59.499Z,98107.41
2023-03-06T13:40:26.750Z,98101.98
2023-03-06T13:42:32.659Z,98097.27
2023-03-06T13:44:48.581Z,98101.19
2023-03-06T13:47:01.050Z,98103.20
2023-03-06T13:49:14.386Z,98103.57
2023-03-06T13:51:28.269Z,98096.23
2023-03-06T13:53:52.603Z,98091.73
2023-03-06T13:56:11.973Z,98091.77
2023-03-06T13:58:31.608Z,98089.39
2023-03-06T14:01:10.219Z,98089.94
2023-03-06T14:03:38.596Z,98090.89
2023-03-06T14:05:47.921Z,98085.26
2023-03-06T14:08:07.944Z,98087.41
2023-03-06T14:10:21.354Z,98085.61
2023-03-06T14:12:30.292Z,98095.55
2023-03-06T14:14:39.246Z,98088.79
2023-03-06T14:16:50.845Z,98083.13
2023-03-06T14:18:57.520Z,98084.91
2023-03-06T14:21:03.628Z,98090.48
2023-03-06T14:23:31.823Z,98089.44
2023-03-06T14:25:36.596Z,98090.35
2023-03-06T14:27:52.588Z,98088.86
2023-03-06T14:30:09.282Z,98090.06
2023-03-06T14:32:21.375Z,98084.45
2023-03-06T14:34:28.863Z,98083.27
2023-03-06T14:36:41.850Z,98083.61
2023-03-06T14:38:49.244Z,98088.68
2023-03-06T14:40:54.076Z,98085.37
2023-03-06T14:43:21.036Z,98084.05
2023-03-06T14:45:25.873Z,98087.56
2023-03-06T14:47:32.193Z,98083.98
2023-03-06T14:49:36.858Z,98086.98
2023-03-06T14:51:44.796Z,98086.75
2023-03-06T14:53:50.932Z,98082.65
2023-03-06T14:55:57.454Z,98083.73
2023-03-06T14:58:07.749Z,98078.96
2023-03-06T15:00:19.888Z,98079.73
2023-03-06T15:02:27.513Z,98080.59
2023-03-06T15:04:39.916Z,98075.06
2023-03-06T15:06:48.855Z,98079.58
2023-03-06T15:09:00.191Z,98082.36
2023-03-06T15:11:06.684Z,98087.27
2023-03-06T15:13:20.033Z,98086.55
2023-03-06T15:15:31.184Z,98092.54
2023-03-06T15:17:42.593Z,98084.02
2023-03-06T15:19:49.495Z,98081.86
2023-03-06T15:21:54.369Z,98082.05
2023-03-06T15:23:59.360Z,98081.55
2023-03-06T15:26:17.333Z,98078.80
2023-03-06T15:28:33.155Z,98086.05
2023-03-06T15:30:38.329Z,98081.33
2023-03-06T15:32:43.483Z,98079.36
2023-03-06T15:35:08.811Z,98080.92
2023-03-06T15:37:28.562Z,98085.83
2023-03-06T15:39:40.595Z,98079.73
2023-03-06T15:41:45.207Z,98082.95
2023-03-06T15:43:50.137Z,98079.21
2023-03-06T15:45:59.234Z,98083.34
2023-03-06T15:48:14.683Z,98088.00
2023-03-06T15:50:24.410Z,98084.96
2023-03-06T15:52:29.952Z,98090.70
2023-03-06T15:54:35.542Z,98086.89
2023-03-06T15:56:42.012Z,98085.79
2023-03-06T15:58:47.661Z,98088.42
2023-03-06T16:00:52.970Z,98083.16
2023-03-06T16:02:59.017Z,98086.66
2023-03-06T16:05:10.460Z,98087.23
2023-03-06T16:07:15.241Z,98086.89
2023-03-06T16:09:20.331Z,98085.02
2023-03-06T16:11:35.378Z,98086.11
2023-03-06T16:13:47.220Z,98086.58
2023-03-06T16:15:53.488Z,98085.23
2023-03-06T16:17:59.287Z,98087.76
2023-03-06T16:20:06.002Z,98089.34
2023-03-06T16:22:14.677Z,98086.19
2023-03-06T16:24:19.407Z,98093.04
2023-03-06T16:26:31.993Z,98092.15
2023-03-06T16:28:37.174Z,98092.36
2023-03-06T16:30:43.458Z,98093.40
2023-03-06T16:32:52.753Z,98091.61
2023-03-06T16:34:57.736Z,98087.48
2023-03-06T16:37:07.690Z,98084.71
2023-03-06T16:39:15.863Z,98086.70
2023-03-06T16:41:21.515Z,98087.11
2023-03-06T16:43:28.809Z,98087.77
2023-03-06T16:45:38.827Z,98080.31
2023-03-06T16:47:47.243Z,98078.81
2023-03-06T16:49:53.788Z,98084.66
2023-03-06T16:52:01.344Z,98084.13
2023-03-06T16:54:07.408Z,98086.95
2023-03-06T16:56:14.782Z,98085.46
2023-03-06T16:58:19.472Z,98089.56
2023-03-06T17:00:25.126Z,98089.71
2023-03-06T17:02:30.058Z,98093.81
2023-03-06T17:04:35.501Z,98095.96
2023-03-06T17:06:47.093Z,98095.11
2023-03-06T17:08:52.374Z,98094.21
2023-03-06T17:10:57.819Z,98092.63
2023-03-06T17:13:04.481Z,98096.90
2023-03-06T17:15:12.403Z,98094.72
2023-03-06T17:17:17.897Z,98097.11
2023-03-06T17:19:24.287Z,98099.56
2023-03-06T17:21:29.681Z,98101.56
2023-03-06T17:23:37.376Z,98101.36
2023-03-06T17:25:42.772Z,98102.54
2023-03-06T17:27:51.972Z,98106.66
2023-03-06T17:30:00.746Z,98104.30
2023-03-06T17:32:06.856Z,98106.42
2023-03-06T17:34:12.526Z,98109.52
2023-03-06T17:36:18.410Z,98111.48
2023-03-06T17:38:24.672Z,98115.36
2023-03-06T17:40:30.088Z,98117.42
2023-03-06T17:42:37.040Z,98113.23
2023-03-06T17:44:42.880Z,98117.03
2023-03-06T17:46:49.453Z,98117.00
2023-03-06T17:48:55.139Z,98122.05
2023-03-06T17:51:04.870Z,98121.25
2023-03-06T17:53:10.815Z,98122.98
2023-03-06T17:55:16.705Z,98127.02
2023-03-06T17:57:24.230Z,98126.20
2023-03-06T17:59:31.012Z,98127.27
2023-03-06T18:01:36.218Z,98133.73
2023-03-06T18:03:45.884Z,98131.70
2023-03-06T18:06:00.414Z,98127.25
2023-03-06T18:08:07.897Z,98130.38
2023-03-06T18:10:14.850Z,98130.95
2023-03-06T18:12:20.661Z,98133.08
2023-03-06T18:14:27.374Z,98134.34
2023-03-06T18:16:33.901Z,98135.69
2023-03-06T18:18:40.107Z,98138.55
2023-03-06T18:20:48.318Z,98139.95
2023-03-06T18:22:53.537Z,98146.09
2023-03-06T18:25:00.255Z,98148.07
2023-03-06T18:27:06.720Z,98146.85
2023-03-06T18:29:14.360Z,98147.58
2023-03-06T18:31:27.641Z,98149.97
2023-03-06T18:33:36.152Z,98144.57
2023-03-06T18:35:44.333Z,98144.70
2023-03-06T18:37:50.382Z,98148.89
2023-03-06T18:39:56.417Z,98145.77
2023-03-06T18:42:02.406Z,98143.63
2023-03-06T18:44:08.843Z,98151.41
2023-03-06T18:46:14.924Z,98147.00
2023-03-06T18:48:22.032Z,98152.31
2023-03-06T18:50:28.713Z,98152.64
2023-03-06T18:52:35.874Z,98151.10
2023-03-06T18:54:43.482Z,98150.95
2023-03-06T18:56:49.614Z,98150.92
2023-03-06T18:59:03.042Z,98153.67
2023-03-06T19:01:12.042Z,98150.88
2023-03-06T19:03:19.066Z,98150.65
2023-03-06T19:05:25.838Z,98148.11
2023-03-06T19:07:31.975Z,98148.92
2023-03-06T19:09:37.566Z,98147.30
2023-03-06T19:11:46.455Z,98155.79
2023-03-06T19:13:52.361Z,98156.84
2023-03-06T19:15:59.551Z,98156.61
2023-03-06T19:18:06.793Z,98161.96
2023-03-06T19:20:14.534Z,98161.97
2023-03-06T19:22:21.459Z,98161.80
2023-03-06T19:24:29.085Z,98158.64
2023-03-06T19:26:42.018Z,98157.77
2023-03-06T19:28:48.805Z,98164.14
2023-03-06T19:30:56.126Z,98158.67
2023-03-06T19:33:03.571Z,98167.61
2023-03-06T19:35:13.127Z,98169.49
2023-03-06T19:37:23.715Z,98165.98
2023-03-06T19:39:30.833Z,98172.21
2023-03-06T19:41:37.666Z,98171.54
2023-03-06T19:43:43.002Z,98175.42
2023-03-06T19:45:52.942Z,98176.90
2023-03-06T19:48:00.486Z,98178.56
2023-03-06T19:50:06.200Z,98178.27
2023-03-06T19:52:13.978Z,98180.20
2023-03-06T19:54:27.439Z,98175.13
2023-03-06T19:56:34.289Z,98178.18
2023-03-06T19:58:41.662Z,98183.31
2023-03-06T20:00:47.232Z,98183.52
2023-03-06T20:02:54.190Z,98189.94
2023-03-06T20:05:00.956Z,98187.33
2023-03-06T20:07:07.574Z,98188.67
2023-03-06T20:09:15.414Z,98189.20
2023-03-06T20:11:23.556Z,98189.21
2023-03-06T20:13:31.546Z,98190.56
2023-03-06T20:15:38.788Z,98189.84
2023-03-06T20:17:45.443Z,98189.14
2023-03-06T20:19:52.157Z,98193.95
2023-03-06T20:22:00.306Z,98198.88
2023-03-06T20:24:07.921Z,98198.31
2023-03-06T20:26:15.246Z,98202.79
2023-03-06T20:28:20.811Z,98204.70
2023-03-06T20:30:37.315Z,98202.77
2023-03-06T20:32:45.885Z,98202.91
2023-03-06T20:34:52.953Z,98206.14
2023-03-06T20:36:59.803Z,98205.31
2023-03-06T20:39:08.602Z,98208.05
2023-03-06T20:41:18.785Z,98208.98
2023-03-06T20:43:25.610Z,98207.11
2023-03-06T20:45:31.894Z,98201.73
2023-03-06T20:47:38.531Z,98202.34
2023-03-06T20:49:46.233Z,98203.34
2023-03-06T20:51:52.548Z,98203.03
2023-03-06T20:53:59.320Z,98198.88
2023-03-06T20:56:06.953Z,98206.21
2023-03-06T20:58:14.670Z,98203.48
2023-03-06T21:00:22.262Z,98208.27
2023-03-06T21:02:28.507Z,98206.06
2023-03-06T21:04:34.154Z,98203.90
2023-03-06T21:06:40.090Z,98213.67
2023-03-06T21:08:59.291Z,98208.30
2023-03-06T21:11:06.053Z,98209.81
2023-03-06T21:13:11.726Z,98203.66
2023-03-06T21:15:20.017Z,98208.08
2023-03-06T21:17:25.639Z,98209.43
2023-03-06T21:19:31.542Z,98213.71
2023-03-06T21:21:37.183Z,98216.27
2023-03-06T21:23:42.472Z,98218.11
2023-03-06T21:25:52.235Z,98217.38
2023-03-06T21:27:57.803Z,98215.66
2023-03-06T21:30:03.476Z,98216.11
2023-03-06T21:32:08.412Z,98218.23
2023-03-06T21:34:13.493Z,98218.15
2023-03-06T21:36:19.773Z,98219.48
2023-03-06T21:38:25.462Z,98220.90
2023-03-06T21:40:30.989Z,98222.02
2023-03-06T21:42:36.569Z,98220.11
2023-03-06T21:44:41.272Z,98222.77
2023-03-06T21:46:45.995Z,98218.40
2023-03-06T21:48:50.784Z,98225.19
2023-03-06T21:51:06.129Z,98222.10
2023-03-06T21:53:10.890Z,98220.80
2023-03-06T21:55:15.688Z,98221.33
2023-03-06T21:57:20.400Z,98219.08
2023-03-06T21:59:25.259Z,98215.30
2023-03-06T22:01:30.241Z,98211.88
2023-03-06T22:03:36.082Z,98209.44
2023-03-06T22:05:40.692Z,98213.92
2023-03-06T22:07:45.409Z,98211.31
2023-03-06T22:09:51.583Z,98211.76
2023-03-06T22:11:56.261Z,98209.48
2023-03-06T22:14:01.036Z,98211.89
2023-03-06T22:16:07.361Z,98213.17
2023-03-06T22:18:12.089Z,98210.89
2023-03-06T22:20:17.136Z,98212.73
2023-03-06T22:22:21.882Z,98212.28
2023-03-06T22:24:26.622Z,98214.35
2023-03-06T22:26:31.556Z,98213.73
2023-03-06T22:28:36.199Z,98207.06
2023-03-06T22:30:40.806Z,98203.04
2023-03-06T22:32:45.514Z,98200.95
2023-03-06T22:34:51.457Z,98199.34
2023-03-06T22:36:56.143Z,98190.02
2023-03-06T22:39:02.897Z,98193.88
2023-03-06T22:41:08.371Z,98197.41
2023-03-06T22:43:12.984Z,98190.55
2023-03-06T22:45:17.747Z,98186.07
2023-03-06T22:47:22.362Z,98194.48
2023-03-06T22:49:26.963Z,98195.80
2023-03-06T22:51:31.595Z,98192.41
2023-03-06T22:53:36.786Z,98197.54
2023-03-06T22:55:41.506Z,98191.96
2023-03-06T22:57:46.615Z,98193.39
2023-03-06T22:59:51.827Z,98195.34
2023-03-06T23:01:58.702Z,98196.40
2023-03-06T23:04:04.451Z,98196.65
2023-03-06T23:06:12.199Z,98203.07
2023-03-06T23:08:17.319Z,98197.58
2023-03-06T23:10:22.013Z,98195.63
2023-03-06T23:12:44.983Z,98198.88
2023-03-06T23:15:09.513Z,98197.00
2023-03-06T23:17:33.016Z,98195.54
2023-03-06T23:19:56.487Z,98200.34
2023-03-06T23:22:19.590Z,98201.97
2023-03-06T23:24:42.825Z,98199.23
2023-03-06T23:26:47.502Z,98195.48
2023-03-06T23:28:52.719Z,98200.33
2023-03-06T23:30:57.512Z,98206.67
2023-03-06T23:33:02.210Z,98207.61
2023-03-06T23:35:07.890Z,98209.86
2023-03-06T23:37:15.313Z,98207.36
2023-03-06T23:39:20.364Z,98209.77
2023-03-06T23:41:25.421Z,98210.16
2023-03-06T23:43:30.680Z,98211.79
2023-03-06T23:45:35.415Z,98210.92
2023-03-06T23:47:40.042Z,98213.13
2023-03-06T23:49:44.829Z,98211.21
2023-03-06T23:51:49.471Z,98211.94
2023-03-06T23:53:59.195Z,98211.56
2023-03-06T23:56:09.472Z,98211.15
2023-03-06T23:58:18.134Z,98207.36
